Tuesday, February 09, 2016
07:48 UTC
  |  Log In   |  Register Free
Airport Search:

Eisenhower Medical Center Airport
(7CA8)

Eisenhower Medical Center Airport Diagram
No Airport Diagram Available

FAA data valid effective Dec 10 2015 - Feb 4 2016 (unless otherwise noted).

 
 
 
 
 
 
 
 
 
 
 
 
 
 
Summary: Eisenhower Medical Center (7CA8)

Weather Summary


METAR for 7CA8 is not available. Closest METAR is for KPSP 6.3 nm SE
KPSP  (6.3 nm SE)   (most recent observation was updated at 90:65 UTC)
090653Z 25007KT 10SM CLR 21/M04 A3022 RMK AO2 SLP230 T02061039

KTRM  (14.9 nm NW)   (most recent observation was updated at 90:65 UTC)
090652Z AUTO 36008KT 10SM CLR 17/M04 A3016 RMK AO2 SLP213 T01671039 $

TAF for 7CA8 is not available.
KPSP  (6.3 nm SE)   (most recent observation was updatred at 90:52 UTC)
090526Z 0906/1006 VRB05KT P6SM SKC


KTRM  (14.9 nm NW)   (most recent observation was updatred at 90:52 UTC)
090526Z 0906/1006 33006KT P6SM SKC


KNXP  (34.1 nm SW)   (most recent observation was updatred at UTC)
0903/1003 30010KT 9999 FEW250 QNH3027INS AUTOMATED SENSOR METWATCH 0903 TIL 0915 T10/0914Z T24/0922Z
GlobalAir.com is loading additional information.
Current weather conditions are not available for 7CA8.

The nearest NOAA weather station is at PSP (5.5 nm NW from 7CA8)
 Current Weather at PSP
69.0 F° (20.6 C°)
Fair
Southwest winds at 6.9 mph
Pressure:
30.22 in
Humidity:
19%
Wind:
Southwest at 6.9 MPH (6 KT)
Dew Point:
25.0 F° (-3.9 C°)
Visibility:
10.00 mi
7CA8 NOAA Radar

Runway Summary

ID Dimensions Surface Instrument Approaches
H1 40 ft x 40 ft Bituminous Concrete N/A

Communications Summary


CTAFN/A
UNICOMN/A
ATISN/A
CLEARANCE DELIVERYN/A

Terminal Procedures Summary


No terminal procedures available for 7CA8





Closest Alternate Airports with Instrument Procedures

KPSP - Palm Springs International - 7.3 nm NW from 7CA8

KUDD - Bermuda Dunes - 7.6 nm SE from 7CA8

KTRM - Jacqueline Cochran Regional - 17.1 nm SE from 7CA8

FL08 - Borrego Valley - 35.4 nm SE from 7CA8

KHMT - Hemet-Ryan - 35.6 nm SW from 7CA8

KTNP - Twentynine Palms - 36.6 nm NE from 7CA8

KL35 - Big Bear City - 43 nm NW from 7CA8

KF70 - French Valley - 43.6 nm SW from 7CA8

KSBD - San Bernardino International - 52.8 nm NW from 7CA8

LL18 - Fallbrook Community Airpark - 56.4 nm SW from 7CA8

Find All Airport Services Find A Hotel Find A Rental Car Find A Golf Course Find A Restaurant $100 Hamburger



FBO's on the Field
FBO Company Facility Photos Services Transportation Aviation Fuel Prices: Prices include tax
Catering Weather Repair Courtesy Rental Type 100LL JetA JetA+ MOGAS 8087
 
Add another FBO Facility Photos Catering Weather Repair Courtesy Rental Type 100LL JetA JetA+ MOGAS 8087
Services Transportation Aviation Fuel Prices: Prices include tax
There are no FBO's currently reporting fuel at 7CA8. List your FBO now


model-print
model-print
model-print
model-print